createdAt,value
2022-12-05T00:03:11.198Z,29.52
2022-12-05T00:07:33.086Z,28.42
2022-12-05T00:11:55.028Z,29.40
2022-12-05T00:16:19.898Z,30.13
2022-12-05T00:20:49.357Z,30.70
2022-12-05T00:25:11.520Z,30.20
2022-12-05T00:29:33.663Z,30.02
2022-12-05T00:33:59.231Z,30.83
2022-12-05T00:38:21.191Z,28.90
2022-12-05T00:42:46.840Z,27.95
2022-12-05T00:47:11.315Z,29.25
2022-12-05T00:51:39.961Z,28.75
2022-12-05T00:56:09.390Z,29.17
2022-12-05T01:00:31.321Z,27.35
2022-12-05T01:04:53.258Z,27.20
2022-12-05T01:09:18.457Z,27.08
2022-12-05T01:13:39.998Z,27.02
2022-12-05T01:18:02.048Z,26.83
2022-12-05T01:22:24.081Z,26.98
2022-12-05T01:26:46.975Z,25.52
2022-12-05T01:31:32.044Z,25.80
2022-12-05T01:35:54.107Z,25.50
2022-12-05T01:40:16.399Z,25.23
2022-12-05T01:44:38.431Z,23.15
2022-12-05T01:49:12.789Z,21.67
2022-12-05T01:53:34.494Z,22.38
2022-12-05T01:57:57.781Z,22.38
2022-12-05T02:02:20.700Z,23.27
2022-12-05T02:06:43.224Z,23.45
2022-12-05T02:11:08.041Z,23.58
2022-12-05T02:15:40.684Z,21.60
2022-12-05T02:20:33.999Z,21.92
2022-12-05T02:25:32.147Z,21.38
2022-12-05T02:29:53.670Z,19.42
2022-12-05T02:34:36.273Z,18.58
2022-12-05T02:39:22.879Z,18.08
2022-12-05T02:44:14.577Z,18.83
2022-12-05T02:48:37.817Z,17.10
2022-12-05T02:53:14.616Z,17.58
2022-12-05T02:57:38.819Z,17.73
2022-12-05T03:02:01.025Z,16.85
2022-12-05T03:06:34.845Z,16.02
2022-12-05T03:10:58.994Z,15.73
2022-12-05T03:15:40.133Z,15.75
2022-12-05T03:20:25.303Z,16.45
2022-12-05T03:24:47.267Z,15.82
2022-12-05T03:29:37.326Z,15.70
2022-12-05T03:34:01.206Z,16.50
2022-12-05T03:38:40.002Z,16.73
2022-12-05T03:43:28.132Z,17.65
2022-12-05T03:48:10.356Z,17.85
2022-12-05T03:53:17.884Z,17.90
2022-12-05T03:57:43.902Z,17.50
2022-12-05T04:02:16.960Z,17.65
2022-12-05T04:06:41.243Z,17.70
2022-12-05T04:11:09.599Z,17.02
2022-12-05T04:15:52.370Z,16.45
2022-12-05T04:20:53.036Z,17.80
2022-12-05T04:25:35.723Z,17.08
2022-12-05T04:30:16.404Z,18.40
2022-12-05T04:34:40.110Z,22.35
2022-12-05T04:39:21.275Z,29.48
2022-12-05T04:43:45.871Z,33.08
2022-12-05T04:48:14.466Z,34.35
2022-12-05T04:52:37.780Z,35.60
2022-12-05T04:57:10.411Z,38.65
2022-12-05T05:01:44.745Z,36.47
2022-12-05T05:06:07.657Z,37.38
2022-12-05T05:10:50.579Z,36.70
2022-12-05T05:15:12.380Z,36.75
2022-12-05T05:19:33.895Z,35.50
2022-12-05T05:23:56.812Z,36.33
2022-12-05T05:28:18.793Z,36.38
2022-12-05T05:32:40.723Z,36.78
2022-12-05T05:37:02.658Z,35.13
2022-12-05T05:41:31.659Z,33.80
2022-12-05T05:45:53.655Z,31.38
2022-12-05T05:50:21.403Z,33.35
2022-12-05T05:54:43.559Z,33.10
2022-12-05T05:59:05.421Z,33.50
2022-12-05T06:03:27.495Z,33.17
2022-12-05T06:07:49.520Z,33.05
2022-12-05T06:12:11.503Z,34.55
2022-12-05T06:16:33.541Z,32.85
2022-12-05T06:20:58.110Z,33.42
2022-12-05T06:25:19.937Z,35.35
2022-12-05T06:29:42.560Z,34.25
2022-12-05T06:34:05.186Z,33.55
2022-12-05T06:38:27.062Z,34.78
2022-12-05T06:42:48.959Z,34.08
2022-12-05T06:47:11.106Z,36.17
2022-12-05T06:51:33.203Z,34.22
2022-12-05T06:56:01.627Z,34.30
2022-12-05T07:00:42.551Z,34.67
2022-12-05T07:05:04.660Z,34.83
2022-12-05T07:09:48.107Z,34.80
2022-12-05T07:14:19.149Z,34.88
2022-12-05T07:18:46.748Z,35.85
2022-12-05T07:23:09.094Z,36.50
2022-12-05T07:27:31.006Z,35.88
2022-12-05T07:31:55.106Z,38.08
2022-12-05T07:36:22.613Z,39.55
2022-12-05T07:40:44.236Z,36.47
2022-12-05T07:45:07.179Z,35.95
2022-12-05T07:49:29.276Z,37.50
2022-12-05T07:53:52.377Z,37.88
2022-12-05T07:58:14.067Z,36.60
2022-12-05T08:02:40.435Z,36.65
2022-12-05T08:07:02.778Z,35.90
2022-12-05T08:11:31.068Z,35.47
2022-12-05T08:15:52.782Z,36.30
2022-12-05T08:20:15.134Z,35.45
2022-12-05T08:24:36.967Z,35.63
2022-12-05T08:29:12.000Z,35.90
2022-12-05T08:33:34.262Z,35.00
2022-12-05T08:37:55.929Z,32.72
2022-12-05T08:42:17.872Z,33.20
2022-12-05T08:46:39.941Z,32.25
2022-12-05T08:51:10.181Z,33.80
2022-12-05T08:55:35.566Z,34.85
2022-12-05T08:59:57.545Z,33.38
2022-12-05T09:04:19.654Z,34.38
2022-12-05T09:08:42.719Z,32.83
2022-12-05T09:13:04.503Z,35.88
2022-12-05T09:17:26.604Z,34.58
2022-12-05T09:21:48.648Z,33.63
2022-12-05T09:26:14.587Z,31.23
2022-12-05T09:30:36.712Z,30.45
2022-12-05T09:34:58.626Z,28.73
2022-12-05T09:39:21.280Z,26.92
2022-12-05T09:44:03.652Z,21.58
2022-12-05T09:48:25.897Z,18.83
2022-12-05T09:53:34.524Z,18.77
2022-12-05T09:58:02.792Z,12.27
2022-12-05T10:02:42.853Z,15.07
2022-12-05T10:07:30.817Z,12.23
2022-12-05T10:12:25.066Z,10.85
2022-12-05T10:17:04.368Z,8.35
2022-12-05T10:22:01.202Z,7.90
2022-12-05T10:26:28.270Z,7.55
2022-12-05T10:30:51.363Z,7.97
2022-12-05T10:35:23.885Z,6.95
2022-12-05T10:39:47.782Z,7.18
2022-12-05T10:44:11.012Z,7.00
2022-12-05T10:48:37.961Z,6.95
2022-12-05T10:53:02.932Z,7.40
2022-12-05T10:57:30.164Z,7.38
2022-12-05T11:01:58.056Z,7.40
2022-12-05T11:06:27.743Z,8.20
2022-12-05T11:10:49.893Z,7.80
2022-12-05T11:15:22.008Z,7.57
2022-12-05T11:19:43.851Z,6.40
2022-12-05T11:24:30.066Z,6.80
2022-12-05T11:28:52.041Z,6.43
2022-12-05T11:33:24.722Z,8.18
2022-12-05T11:37:50.745Z,8.30
2022-12-05T11:42:40.561Z,9.15
2022-12-05T11:47:11.033Z,10.48
2022-12-05T11:52:07.575Z,9.48
2022-12-05T11:56:49.378Z,9.25
2022-12-05T12:01:30.671Z,9.38
2022-12-05T12:06:07.068Z,9.90
2022-12-05T12:11:22.174Z,9.35
2022-12-05T12:16:08.934Z,10.25
2022-12-05T12:21:04.748Z,10.18
2022-12-05T12:25:59.141Z,11.18
2022-12-05T12:30:30.240Z,11.18
2022-12-05T12:35:36.690Z,10.57
2022-12-05T12:40:15.041Z,10.15
2022-12-05T12:45:14.724Z,10.48
2022-12-05T12:50:06.039Z,9.70
2022-12-05T12:55:04.360Z,10.65
2022-12-05T13:00:36.271Z,11.45
2022-12-05T13:05:31.359Z,11.75
2022-12-05T13:09:59.288Z,11.45
2022-12-05T13:14:25.902Z,10.77
2022-12-05T13:18:48.340Z,12.50
2022-12-05T13:23:19.051Z,11.57
2022-12-05T13:27:42.972Z,11.50
2022-12-05T13:32:06.935Z,12.23
2022-12-05T13:36:47.308Z,12.10
2022-12-05T13:41:27.918Z,12.73
2022-12-05T13:46:12.077Z,10.35
2022-12-05T13:50:49.090Z,10.65
2022-12-05T13:55:36.196Z,9.88
2022-12-05T14:00:30.704Z,10.10
2022-12-05T14:04:53.909Z,9.88
2022-12-05T14:09:18.827Z,10.90
2022-12-05T14:13:43.698Z,10.18
2022-12-05T14:18:42.020Z,10.02
2022-12-05T14:23:13.078Z,10.80
2022-12-05T14:28:02.219Z,9.88
2022-12-05T14:32:39.082Z,10.43
2022-12-05T14:37:09.287Z,9.00
2022-12-05T14:41:36.075Z,10.25
2022-12-05T14:46:08.408Z,9.73
2022-12-05T14:50:50.585Z,10.07
2022-12-05T14:55:22.151Z,9.73
2022-12-05T14:59:52.344Z,9.93
2022-12-05T15:04:51.209Z,11.38
2022-12-05T15:09:45.297Z,10.18
2022-12-05T15:14:22.155Z,10.60
2022-12-05T15:18:50.889Z,10.27
2022-12-05T15:23:38.131Z,10.77
2022-12-05T15:28:17.863Z,10.45
2022-12-05T15:32:41.143Z,11.18
2022-12-05T15:37:38.300Z,11.07
2022-12-05T15:42:00.249Z,10.88
2022-12-05T15:46:28.207Z,9.90
2022-12-05T15:50:54.054Z,11.63
2022-12-05T15:55:29.263Z,11.93
2022-12-05T16:00:06.915Z,12.35
2022-12-05T16:04:48.400Z,12.63
2022-12-05T16:09:23.736Z,12.45
2022-12-05T16:13:51.402Z,12.77
2022-12-05T16:18:31.586Z,14.20
2022-12-05T16:22:58.230Z,13.45
2022-12-05T16:27:34.986Z,13.82
2022-12-05T16:31:59.166Z,13.73
2022-12-05T16:36:21.196Z,13.48
2022-12-05T16:40:46.193Z,13.95
2022-12-05T16:45:38.990Z,13.35
2022-12-05T16:50:22.901Z,15.07
2022-12-05T16:54:49.122Z,16.58
2022-12-05T16:59:31.665Z,15.05
2022-12-05T17:03:55.264Z,16.25
2022-12-05T17:08:17.314Z,15.77
2022-12-05T17:12:42.284Z,14.63
2022-12-05T17:17:16.184Z,12.77
2022-12-05T17:21:41.997Z,13.38
2022-12-05T17:26:04.016Z,13.35
2022-12-05T17:30:26.329Z,12.35
2022-12-05T17:34:48.096Z,11.43
2022-12-05T17:39:10.640Z,9.27
2022-12-05T17:43:32.735Z,8.02
2022-12-05T17:47:54.373Z,7.40
2022-12-05T17:52:23.573Z,6.38
2022-12-05T17:56:45.317Z,5.40
2022-12-05T18:01:08.126Z,4.35
2022-12-05T18:05:30.361Z,5.38
2022-12-05T18:09:52.183Z,4.45
2022-12-05T18:14:13.998Z,4.07
2022-12-05T18:18:35.964Z,4.78
2022-12-05T18:22:57.877Z,4.32
2022-12-05T18:27:21.414Z,4.75
2022-12-05T18:31:43.443Z,4.97
2022-12-05T18:36:08.558Z,5.60
2022-12-05T18:40:30.166Z,5.22
2022-12-05T18:44:52.866Z,6.10
2022-12-05T18:49:16.097Z,5.88
2022-12-05T18:53:40.617Z,6.32
2022-12-05T18:58:03.620Z,6.43
2022-12-05T19:02:25.673Z,5.32
2022-12-05T19:06:54.494Z,6.05
2022-12-05T19:11:19.099Z,6.35
2022-12-05T19:15:40.836Z,6.85
2022-12-05T19:20:03.013Z,6.57
2022-12-05T19:24:25.226Z,6.68
2022-12-05T19:28:47.853Z,6.55
2022-12-05T19:33:09.802Z,6.00
2022-12-05T19:37:32.080Z,8.52
2022-12-05T19:41:55.295Z,6.15
2022-12-05T19:46:22.124Z,6.10
2022-12-05T19:50:43.895Z,6.60
2022-12-05T19:55:06.401Z,6.75
2022-12-05T19:59:28.368Z,6.25
2022-12-05T20:03:56.849Z,6.25
2022-12-05T20:08:18.766Z,6.20
2022-12-05T20:12:40.848Z,5.93
2022-12-05T20:17:05.490Z,5.53
2022-12-05T20:21:32.019Z,6.05
2022-12-05T20:25:55.392Z,5.82
2022-12-05T20:30:17.635Z,6.03
2022-12-05T20:34:39.411Z,5.30
2022-12-05T20:39:08.833Z,5.45
2022-12-05T20:43:31.193Z,5.30
2022-12-05T20:47:53.242Z,5.68
2022-12-05T20:52:15.326Z,5.05
2022-12-05T20:56:37.474Z,5.00
2022-12-05T21:01:05.757Z,6.38
2022-12-05T21:05:27.466Z,5.30
2022-12-05T21:09:49.460Z,5.90
2022-12-05T21:14:11.802Z,5.57
2022-12-05T21:18:33.705Z,5.75
2022-12-05T21:22:55.236Z,5.82
2022-12-05T21:27:17.178Z,5.30
2022-12-05T21:31:42.952Z,6.05
2022-12-05T21:36:07.058Z,5.68
2022-12-05T21:40:29.847Z,5.13
2022-12-05T21:44:51.566Z,5.30
2022-12-05T21:49:13.644Z,5.40
2022-12-05T21:53:36.136Z,5.80
2022-12-05T21:57:58.043Z,5.68
2022-12-05T22:02:20.049Z,5.35
2022-12-05T22:06:41.882Z,5.60
2022-12-05T22:11:22.140Z,4.90
2022-12-05T22:15:43.803Z,4.75
2022-12-05T22:20:07.020Z,4.88
2022-12-05T22:24:29.065Z,5.55
2022-12-05T22:28:54.049Z,5.47
2022-12-05T22:33:16.119Z,4.97
2022-12-05T22:37:37.922Z,4.90
2022-12-05T22:41:59.914Z,4.38
2022-12-05T22:46:22.366Z,4.35
2022-12-05T22:50:49.182Z,3.95
2022-12-05T22:55:10.919Z,4.45
2022-12-05T22:59:33.115Z,4.60
2022-12-05T23:04:01.741Z,4.13
2022-12-05T23:08:23.670Z,4.65
2022-12-05T23:12:45.614Z,4.25
2022-12-05T23:17:07.493Z,4.43
2022-12-05T23:21:40.372Z,3.83
2022-12-05T23:26:02.346Z,3.72
2022-12-05T23:30:24.389Z,4.35
2022-12-05T23:34:46.033Z,3.83
2022-12-05T23:39:08.212Z,4.32
2022-12-05T23:43:34.973Z,4.00
2022-12-05T23:47:59.415Z,3.97
2022-12-05T23:52:23.426Z,4.13
2022-12-05T23:56:45.808Z,3.80
